Чайво (Буровая)

Карта отелей и гостиниц, располагающихся рядом с аэропортом Чайво (Буровая) :

Чайво (Буровая) Сахалинская область 52° 28' 49.6812" N, 143° 17' 18.8988" E
Код аэродрома ИКАО
UHSY
Код аэродрома RU
УХСЫ
Координаты
N52.48047° E143.28858°
Превышение над уровнем моря
5
Основная полоса
11/29
Курс магнитный
105,7/285,7
Длина основной ВПП
50
Ширина основной ВПП
50
Покрытие основной ВПП
Твёрдое
Освещение ВПП
Нет
Тип: 
Вертодром
Класс аэродрома: 
Принадлежность: 
ГА
Статус: 
Действующий
Сайт: 
E-mail аэродрома: 
Страна: 
Россия
Регион: 
Сахалинская область
Город: 
Дополнительная информация: 
Оператор: буровая станция "Роснефть".

Найти трансфер

С помощью этой формы Вы можете найти трансфер из аэропорта Чайво (Буровая) в город, аэропорт или вокзал:

Карта места

Javascript is required to view this map.

Погода в аэропортах:

Авиационная погода в Курске

Погода METAR: 
UUOK 281300Z 18002MPS 160V240 5000 BR OVC011 07/06 Q1008 R30/290050 TEMPO 1500 BR RMK QFE737/0983
Время наблюдения
2021-11-28T13:00:00Z
Температура C
7.0
Точка росы
6.0
Направление ветра
180
Скорость ветра (узлы)
4
Метео видимость
3.11
Явления погоды
BR
Условия полета
MVFR
Аэропорт подробнее: 

Авиационная погода в Перми

Регион: 
Погода METAR: 
USPP 281300Z 19006MPS 3700 -SN BKN026 M03/M06 Q1015 RESN R21/490242 TEMPO 1000 SN BKN007 RMK QFE751
Время наблюдения
2021-11-28T13:00:00Z
Температура C
-3.0
Точка росы
-6.0
Направление ветра
190
Скорость ветра (узлы)
12
Метео видимость
2.3
Явления погоды
-SN
Условия полета
IFR
Аэропорт подробнее: 

Авиационная погода в Ровно

Регион: 
Погода METAR: 
UKLR 281400Z VRB01MPS 6000 -RA OVC026 04/04 Q0997 NOSIG
Время наблюдения
2021-11-28T14:00:00Z
Температура C
4.0
Точка росы
4.0
Направление ветра
0
Скорость ветра (узлы)
2
Метео видимость
3.73
Явления погоды
-RA
Условия полета
MVFR
Аэропорт подробнее: 

Авиационная погода в Воронеже

Регион: 
Погода METAR: 
UUOO 281300Z 13002MPS 0250 0200NE R12/0550N FG VV000 06/06 Q1009 R12/290155 NOSIG RMK QBB020 QFE743
Время наблюдения
2021-11-28T13:00:00Z
Температура C
6.0
Точка росы
6.0
Направление ветра
130
Скорость ветра (узлы)
4
Метео видимость
0.16
Явления погоды
FG
Условия полета
LIFR
Аэропорт подробнее: